sensor_id;sensor_type;location;lat;lon;timestamp;P1;durP1;ratioP1;P2;durP2;ratioP2
9892;SDS011;4985;49.092;8.542;2022-07-09T00:01:28;2.92;;;1.83;;
9892;SDS011;4985;49.092;8.542;2022-07-09T00:03:54;3.55;;;1.70;;
9892;SDS011;4985;49.092;8.542;2022-07-09T00:06:21;3.97;;;1.40;;
9892;SDS011;4985;49.092;8.542;2022-07-09T00:08:47;2.70;;;1.87;;
9892;SDS011;4985;49.092;8.542;2022-07-09T00:11:14;3.67;;;2.05;;
9892;SDS011;4985;49.092;8.542;2022-07-09T00:13:40;4.80;;;1.85;;
9892;SDS011;4985;49.092;8.542;2022-07-09T00:16:07;2.95;;;1.85;;
9892;SDS011;4985;49.092;8.542;2022-07-09T00:18:35;3.10;;;2.05;;
9892;SDS011;4985;49.092;8.542;2022-07-09T00:21:02;2.80;;;1.77;;
9892;SDS011;4985;49.092;8.542;2022-07-09T00:23:29;3.97;;;1.83;;
9892;SDS011;4985;49.092;8.542;2022-07-09T00:25:56;3.17;;;2.03;;
9892;SDS011;4985;49.092;8.542;2022-07-09T00:28:23;2.42;;;1.73;;
9892;SDS011;4985;49.092;8.542;2022-07-09T00:30:49;2.72;;;1.65;;
9892;SDS011;4985;49.092;8.542;2022-07-09T00:33:16;4.43;;;1.70;;
9892;SDS011;4985;49.092;8.542;2022-07-09T00:35:44;1.75;;;1.37;;
9892;SDS011;4985;49.092;8.542;2022-07-09T00:38:10;3.95;;;1.67;;
9892;SDS011;4985;49.092;8.542;2022-07-09T00:40:37;3.05;;;1.58;;
9892;SDS011;4985;49.092;8.542;2022-07-09T00:43:14;2.20;;;1.55;;
9892;SDS011;4985;49.092;8.542;2022-07-09T00:45:41;2.00;;;1.62;;
9892;SDS011;4985;49.092;8.542;2022-07-09T00:48:07;5.68;;;1.48;;
9892;SDS011;4985;49.092;8.542;2022-07-09T00:50:34;2.75;;;1.55;;
9892;SDS011;4985;49.092;8.542;2022-07-09T00:53:03;4.60;;;2.08;;
9892;SDS011;4985;49.092;8.542;2022-07-09T00:55:31;2.00;;;1.70;;
9892;SDS011;4985;49.092;8.542;2022-07-09T00:57:58;4.75;;;1.95;;
9892;SDS011;4985;49.092;8.542;2022-07-09T01:00:25;4.15;;;1.80;;
9892;SDS011;4985;49.092;8.542;2022-07-09T01:02:51;2.17;;;1.83;;
9892;SDS011;4985;49.092;8.542;2022-07-09T01:05:19;2.72;;;1.90;;
9892;SDS011;4985;49.092;8.542;2022-07-09T01:07:46;3.08;;;1.60;;
9892;SDS011;4985;49.092;8.542;2022-07-09T01:10:13;2.00;;;1.45;;
9892;SDS011;4985;49.092;8.542;2022-07-09T01:12:40;4.95;;;1.98;;
9892;SDS011;4985;49.092;8.542;2022-07-09T01:15:07;3.15;;;1.95;;
9892;SDS011;4985;49.092;8.542;2022-07-09T01:17:36;2.12;;;1.33;;
9892;SDS011;4985;49.092;8.542;2022-07-09T01:20:04;5.72;;;1.70;;
9892;SDS011;4985;49.092;8.542;2022-07-09T01:22:33;2.72;;;1.60;;
9892;SDS011;4985;49.092;8.542;2022-07-09T01:25:00;4.32;;;1.60;;
9892;SDS011;4985;49.092;8.542;2022-07-09T01:27:27;4.43;;;1.80;;
9892;SDS011;4985;49.092;8.542;2022-07-09T01:29:54;5.03;;;1.92;;
9892;SDS011;4985;49.092;8.542;2022-07-09T01:32:20;2.45;;;1.75;;
9892;SDS011;4985;49.092;8.542;2022-07-09T01:34:47;5.40;;;1.80;;
9892;SDS011;4985;49.092;8.542;2022-07-09T01:37:13;3.50;;;1.75;;
9892;SDS011;4985;49.092;8.542;2022-07-09T01:39:42;2.30;;;1.73;;
9892;SDS011;4985;49.092;8.542;2022-07-09T01:42:16;1.62;;;1.52;;
9892;SDS011;4985;49.092;8.542;2022-07-09T01:44:43;3.30;;;1.75;;
9892;SDS011;4985;49.092;8.542;2022-07-09T01:47:10;3.17;;;1.60;;
9892;SDS011;4985;49.092;8.542;2022-07-09T01:49:36;3.40;;;1.67;;
9892;SDS011;4985;49.092;8.542;2022-07-09T01:52:04;3.17;;;1.75;;
9892;SDS011;4985;49.092;8.542;2022-07-09T01:54:31;2.60;;;1.52;;
9892;SDS011;4985;49.092;8.542;2022-07-09T01:56:59;5.40;;;1.83;;
9892;SDS011;4985;49.092;8.542;2022-07-09T01:59:25;3.47;;;1.60;;
9892;SDS011;4985;49.092;8.542;2022-07-09T02:01:52;3.00;;;1.77;;
9892;SDS011;4985;49.092;8.542;2022-07-09T02:04:19;5.50;;;1.83;;
9892;SDS011;4985;49.092;8.542;2022-07-09T02:06:45;2.30;;;1.83;;
9892;SDS011;4985;49.092;8.542;2022-07-09T02:09:12;3.10;;;1.67;;
9892;SDS011;4985;49.092;8.542;2022-07-09T02:11:39;2.37;;;1.60;;
9892;SDS011;4985;49.092;8.542;2022-07-09T02:14:07;2.08;;;1.58;;
9892;SDS011;4985;49.092;8.542;2022-07-09T02:16:33;3.67;;;2.00;;
9892;SDS011;4985;49.092;8.542;2022-07-09T02:19:01;3.87;;;1.80;;
9892;SDS011;4985;49.092;8.542;2022-07-09T02:21:28;1.98;;;1.52;;
9892;SDS011;4985;49.092;8.542;2022-07-09T02:23:54;3.17;;;1.77;;
9892;SDS011;4985;49.092;8.542;2022-07-09T02:26:23;1.90;;;1.62;;
9892;SDS011;4985;49.092;8.542;2022-07-09T02:28:51;2.15;;;1.55;;
9892;SDS011;4985;49.092;8.542;2022-07-09T02:31:19;4.57;;;1.80;;
9892;SDS011;4985;49.092;8.542;2022-07-09T02:33:46;2.37;;;1.73;;
9892;SDS011;4985;49.092;8.542;2022-07-09T02:36:12;3.58;;;1.70;;
9892;SDS011;4985;49.092;8.542;2022-07-09T02:38:39;3.95;;;1.60;;
9892;SDS011;4985;49.092;8.542;2022-07-09T02:41:06;3.70;;;1.60;;
9892;SDS011;4985;49.092;8.542;2022-07-09T02:43:32;3.85;;;1.95;;
9892;SDS011;4985;49.092;8.542;2022-07-09T02:45:59;2.55;;;1.73;;
9892;SDS011;4985;49.092;8.542;2022-07-09T02:48:27;2.62;;;1.83;;
9892;SDS011;4985;49.092;8.542;2022-07-09T02:50:54;3.62;;;1.60;;
9892;SDS011;4985;49.092;8.542;2022-07-09T02:53:21;2.53;;;1.90;;
9892;SDS011;4985;49.092;8.542;2022-07-09T02:55:47;2.87;;;1.70;;
9892;SDS011;4985;49.092;8.542;2022-07-09T02:58:14;2.87;;;2.00;;
9892;SDS011;4985;49.092;8.542;2022-07-09T03:00:41;3.22;;;1.87;;
9892;SDS011;4985;49.092;8.542;2022-07-09T03:03:08;2.15;;;1.80;;
9892;SDS011;4985;49.092;8.542;2022-07-09T03:05:36;2.37;;;1.70;;
9892;SDS011;4985;49.092;8.542;2022-07-09T03:08:03;3.25;;;1.60;;
9892;SDS011;4985;49.092;8.542;2022-07-09T03:10:30;2.40;;;1.70;;
9892;SDS011;4985;49.092;8.542;2022-07-09T03:12:57;2.78;;;1.35;;
9892;SDS011;4985;49.092;8.542;2022-07-09T03:15:23;3.40;;;1.73;;
9892;SDS011;4985;49.092;8.542;2022-07-09T03:17:50;2.53;;;1.70;;
9892;SDS011;4985;49.092;8.542;2022-07-09T03:20:17;2.75;;;2.00;;
9892;SDS011;4985;49.092;8.542;2022-07-09T03:22:45;4.00;;;1.73;;
9892;SDS011;4985;49.092;8.542;2022-07-09T03:25:11;3.50;;;1.80;;
9892;SDS011;4985;49.092;8.542;2022-07-09T03:27:38;3.30;;;1.70;;
9892;SDS011;4985;49.092;8.542;2022-07-09T03:30:05;2.03;;;1.67;;
9892;SDS011;4985;49.092;8.542;2022-07-09T03:32:32;3.35;;;1.70;;
9892;SDS011;4985;49.092;8.542;2022-07-09T03:34:59;3.00;;;1.77;;
9892;SDS011;4985;49.092;8.542;2022-07-09T03:37:25;2.50;;;1.73;;
9892;SDS011;4985;49.092;8.542;2022-07-09T03:39:53;3.87;;;1.77;;
9892;SDS011;4985;49.092;8.542;2022-07-09T03:42:20;2.63;;;1.40;;
9892;SDS011;4985;49.092;8.542;2022-07-09T03:44:47;4.30;;;1.70;;
9892;SDS011;4985;49.092;8.542;2022-07-09T03:47:13;2.50;;;1.70;;
9892;SDS011;4985;49.092;8.542;2022-07-09T03:49:40;2.17;;;1.60;;
9892;SDS011;4985;49.092;8.542;2022-07-09T03:52:07;3.27;;;1.90;;
9892;SDS011;4985;49.092;8.542;2022-07-09T03:54:34;2.53;;;1.73;;
9892;SDS011;4985;49.092;8.542;2022-07-09T03:57:02;3.63;;;1.83;;
9892;SDS011;4985;49.092;8.542;2022-07-09T03:59:28;3.00;;;1.80;;
9892;SDS011;4985;49.092;8.542;2022-07-09T04:01:55;5.87;;;2.00;;
9892;SDS011;4985;49.092;8.542;2022-07-09T04:04:22;2.40;;;1.70;;
9892;SDS011;4985;49.092;8.542;2022-07-09T04:06:48;2.87;;;1.90;;
9892;SDS011;4985;49.092;8.542;2022-07-09T04:09:15;2.00;;;1.63;;
9892;SDS011;4985;49.092;8.542;2022-07-09T04:11:41;3.43;;;1.80;;
9892;SDS011;4985;49.092;8.542;2022-07-09T04:14:10;3.07;;;1.83;;
9892;SDS011;4985;49.092;8.542;2022-07-09T04:16:36;2.33;;;2.00;;
9892;SDS011;4985;49.092;8.542;2022-07-09T04:19:03;2.67;;;1.70;;
9892;SDS011;4985;49.092;8.542;2022-07-09T04:21:29;2.40;;;1.53;;
9892;SDS011;4985;49.092;8.542;2022-07-09T04:23:56;2.37;;;1.87;;
9892;SDS011;4985;49.092;8.542;2022-07-09T04:26:22;3.23;;;1.97;;
9892;SDS011;4985;49.092;8.542;2022-07-09T04:28:49;4.07;;;1.90;;
9892;SDS011;4985;49.092;8.542;2022-07-09T04:31:17;2.37;;;1.90;;
9892;SDS011;4985;49.092;8.542;2022-07-09T04:33:46;2.07;;;1.60;;
9892;SDS011;4985;49.092;8.542;2022-07-09T04:36:13;4.00;;;1.60;;
9892;SDS011;4985;49.092;8.542;2022-07-09T04:38:39;2.00;;;1.63;;
9892;SDS011;4985;49.092;8.542;2022-07-09T04:41:06;4.33;;;1.67;;
9892;SDS011;4985;49.092;8.542;2022-07-09T04:43:33;3.80;;;1.80;;
9892;SDS011;4985;49.092;8.542;2022-07-09T04:45:59;3.03;;;1.80;;
9892;SDS011;4985;49.092;8.542;2022-07-09T04:48:27;3.73;;;1.87;;
9892;SDS011;4985;49.092;8.542;2022-07-09T04:50:54;5.70;;;1.97;;
9892;SDS011;4985;49.092;8.542;2022-07-09T04:53:21;8.70;;;2.20;;
9892;SDS011;4985;49.092;8.542;2022-07-09T04:55:48;4.07;;;2.17;;
9892;SDS011;4985;49.092;8.542;2022-07-09T04:58:15;1.83;;;1.70;;
9892;SDS011;4985;49.092;8.542;2022-07-09T05:00:41;3.47;;;1.87;;
9892;SDS011;4985;49.092;8.542;2022-07-09T05:03:08;3.10;;;2.17;;
9892;SDS011;4985;49.092;8.542;2022-07-09T05:05:36;2.07;;;1.60;;
9892;SDS011;4985;49.092;8.542;2022-07-09T05:08:03;2.97;;;1.50;;
9892;SDS011;4985;49.092;8.542;2022-07-09T05:10:30;5.67;;;1.47;;
9892;SDS011;4985;49.092;8.542;2022-07-09T05:12:56;3.00;;;1.80;;
9892;SDS011;4985;49.092;8.542;2022-07-09T05:15:23;4.13;;;2.07;;
9892;SDS011;4985;49.092;8.542;2022-07-09T05:17:50;3.70;;;1.97;;
9892;SDS011;4985;49.092;8.542;2022-07-09T05:20:16;2.90;;;1.80;;
9892;SDS011;4985;49.092;8.542;2022-07-09T05:22:44;4.10;;;2.33;;
9892;SDS011;4985;49.092;8.542;2022-07-09T05:25:11;4.83;;;1.83;;
9892;SDS011;4985;49.092;8.542;2022-07-09T05:27:41;3.67;;;2.10;;
9892;SDS011;4985;49.092;8.542;2022-07-09T05:30:08;3.80;;;1.70;;
9892;SDS011;4985;49.092;8.542;2022-07-09T05:32:35;2.77;;;2.00;;
9892;SDS011;4985;49.092;8.542;2022-07-09T05:35:02;2.90;;;2.30;;
9892;SDS011;4985;49.092;8.542;2022-07-09T05:37:29;4.57;;;2.33;;
9892;SDS011;4985;49.092;8.542;2022-07-09T05:39:57;2.85;;;1.83;;
9892;SDS011;4985;49.092;8.542;2022-07-09T05:42:25;5.20;;;3.00;;
9892;SDS011;4985;49.092;8.542;2022-07-09T05:44:51;4.43;;;2.40;;
9892;SDS011;4985;49.092;8.542;2022-07-09T05:47:18;3.80;;;2.40;;
9892;SDS011;4985;49.092;8.542;2022-07-09T05:49:45;8.60;;;2.50;;
9892;SDS011;4985;49.092;8.542;2022-07-09T05:52:11;4.27;;;2.57;;
9892;SDS011;4985;49.092;8.542;2022-07-09T05:54:38;5.47;;;2.33;;
9892;SDS011;4985;49.092;8.542;2022-07-09T05:57:06;4.77;;;2.50;;
9892;SDS011;4985;49.092;8.542;2022-07-09T05:59:32;7.23;;;2.13;;
9892;SDS011;4985;49.092;8.542;2022-07-09T06:01:59;5.57;;;2.40;;
9892;SDS011;4985;49.092;8.542;2022-07-09T06:04:27;4.63;;;2.80;;
9892;SDS011;4985;49.092;8.542;2022-07-09T06:06:54;4.90;;;2.40;;
9892;SDS011;4985;49.092;8.542;2022-07-09T06:09:21;3.57;;;1.87;;
9892;SDS011;4985;49.092;8.542;2022-07-09T06:11:48;2.58;;;2.08;;
9892;SDS011;4985;49.092;8.542;2022-07-09T06:14:15;3.83;;;2.40;;
9892;SDS011;4985;49.092;8.542;2022-07-09T06:16:44;8.10;;;2.77;;
9892;SDS011;4985;49.092;8.542;2022-07-09T06:19:12;4.60;;;1.90;;
9892;SDS011;4985;49.092;8.542;2022-07-09T06:21:38;5.27;;;2.13;;
9892;SDS011;4985;49.092;8.542;2022-07-09T06:24:05;5.32;;;2.33;;
9892;SDS011;4985;49.092;8.542;2022-07-09T06:26:32;4.55;;;2.30;;
9892;SDS011;4985;49.092;8.542;2022-07-09T06:28:59;2.83;;;2.07;;
9892;SDS011;4985;49.092;8.542;2022-07-09T06:31:27;3.07;;;2.17;;
9892;SDS011;4985;49.092;8.542;2022-07-09T06:33:54;5.40;;;2.23;;
9892;SDS011;4985;49.092;8.542;2022-07-09T06:36:21;4.83;;;2.40;;
9892;SDS011;4985;49.092;8.542;2022-07-09T06:38:48;6.70;;;2.43;;
9892;SDS011;4985;49.092;8.542;2022-07-09T06:41:33;5.45;;;2.25;;
9892;SDS011;4985;49.092;8.542;2022-07-09T06:43:59;3.97;;;2.43;;
9892;SDS011;4985;49.092;8.542;2022-07-09T06:46:27;4.43;;;2.30;;
9892;SDS011;4985;49.092;8.542;2022-07-09T06:48:54;6.65;;;2.50;;
9892;SDS011;4985;49.092;8.542;2022-07-09T06:51:20;4.30;;;2.50;;
9892;SDS011;4985;49.092;8.542;2022-07-09T06:53:47;5.83;;;2.57;;
9892;SDS011;4985;49.092;8.542;2022-07-09T06:56:14;3.57;;;2.17;;
9892;SDS011;4985;49.092;8.542;2022-07-09T06:58:41;3.77;;;2.30;;
9892;SDS011;4985;49.092;8.542;2022-07-09T07:01:08;4.63;;;2.40;;
9892;SDS011;4985;49.092;8.542;2022-07-09T07:03:36;3.93;;;2.40;;
9892;SDS011;4985;49.092;8.542;2022-07-09T07:06:02;7.35;;;2.60;;
9892;SDS011;4985;49.092;8.542;2022-07-09T07:08:29;3.53;;;2.07;;
9892;SDS011;4985;49.092;8.542;2022-07-09T07:10:55;9.83;;;2.40;;
9892;SDS011;4985;49.092;8.542;2022-07-09T07:13:22;2.87;;;2.20;;
9892;SDS011;4985;49.092;8.542;2022-07-09T07:15:49;6.45;;;2.37;;
9892;SDS011;4985;49.092;8.542;2022-07-09T07:18:15;3.45;;;2.30;;
9892;SDS011;4985;49.092;8.542;2022-07-09T07:20:43;3.92;;;2.45;;
9892;SDS011;4985;49.092;8.542;2022-07-09T07:23:10;7.07;;;2.10;;
9892;SDS011;4985;49.092;8.542;2022-07-09T07:25:37;3.73;;;1.83;;
9892;SDS011;4985;49.092;8.542;2022-07-09T07:28:04;3.75;;;1.90;;
9892;SDS011;4985;49.092;8.542;2022-07-09T07:30:31;4.37;;;2.33;;
9892;SDS011;4985;49.092;8.542;2022-07-09T07:32:58;4.50;;;1.92;;
9892;SDS011;4985;49.092;8.542;2022-07-09T07:35:24;3.03;;;2.03;;
9892;SDS011;4985;49.092;8.542;2022-07-09T07:37:52;4.85;;;2.33;;
9892;SDS011;4985;49.092;8.542;2022-07-09T07:40:19;4.43;;;2.00;;
9892;SDS011;4985;49.092;8.542;2022-07-09T07:42:45;4.20;;;2.37;;
9892;SDS011;4985;49.092;8.542;2022-07-09T07:45:12;3.03;;;1.75;;
9892;SDS011;4985;49.092;8.542;2022-07-09T07:47:39;5.97;;;2.37;;
9892;SDS011;4985;49.092;8.542;2022-07-09T07:50:06;5.57;;;2.20;;
9892;SDS011;4985;49.092;8.542;2022-07-09T07:52:33;4.23;;;1.90;;
9892;SDS011;4985;49.092;8.542;2022-07-09T07:55:01;2.92;;;1.87;;
9892;SDS011;4985;49.092;8.542;2022-07-09T07:57:28;2.60;;;1.70;;
9892;SDS011;4985;49.092;8.542;2022-07-09T07:59:54;2.92;;;1.92;;
9892;SDS011;4985;49.092;8.542;2022-07-09T08:02:21;4.68;;;1.60;;
9892;SDS011;4985;49.092;8.542;2022-07-09T08:04:48;2.00;;;1.60;;
9892;SDS011;4985;49.092;8.542;2022-07-09T08:07:14;5.87;;;2.47;;
9892;SDS011;4985;49.092;8.542;2022-07-09T08:09:41;9.98;;;2.28;;
9892;SDS011;4985;49.092;8.542;2022-07-09T08:12:09;3.28;;;1.45;;
9892;SDS011;4985;49.092;8.542;2022-07-09T08:14:36;1.50;;;1.40;;
9892;SDS011;4985;49.092;8.542;2022-07-09T08:17:03;4.85;;;1.55;;
9892;SDS011;4985;49.092;8.542;2022-07-09T08:19:29;2.08;;;1.50;;
9892;SDS011;4985;49.092;8.542;2022-07-09T08:21:56;1.70;;;1.43;;
9892;SDS011;4985;49.092;8.542;2022-07-09T08:24:23;5.20;;;1.70;;
9892;SDS011;4985;49.092;8.542;2022-07-09T08:26:49;3.33;;;1.60;;
9892;SDS011;4985;49.092;8.542;2022-07-09T08:29:17;4.72;;;1.80;;
9892;SDS011;4985;49.092;8.542;2022-07-09T08:31:44;4.27;;;1.50;;
9892;SDS011;4985;49.092;8.542;2022-07-09T08:34:12;1.45;;;1.35;;
9892;SDS011;4985;49.092;8.542;2022-07-09T08:36:38;3.35;;;1.30;;
9892;SDS011;4985;49.092;8.542;2022-07-09T08:39:05;2.03;;;1.20;;
9892;SDS011;4985;49.092;8.542;2022-07-09T08:41:32;2.37;;;1.45;;
9892;SDS011;4985;49.092;8.542;2022-07-09T08:43:58;2.93;;;1.13;;
9892;SDS011;4985;49.092;8.542;2022-07-09T08:46:30;1.60;;;1.00;;
9892;SDS011;4985;49.092;8.542;2022-07-09T08:48:58;5.22;;;1.25;;
9892;SDS011;4985;49.092;8.542;2022-07-09T08:51:26;1.70;;;1.00;;
9892;SDS011;4985;49.092;8.542;2022-07-09T08:53:53;2.50;;;1.00;;
9892;SDS011;4985;49.092;8.542;2022-07-09T08:56:20;3.50;;;1.62;;
9892;SDS011;4985;49.092;8.542;2022-07-09T08:58:47;4.43;;;1.20;;
9892;SDS011;4985;49.092;8.542;2022-07-09T09:01:15;3.45;;;1.40;;
9892;SDS011;4985;49.092;8.542;2022-07-09T09:03:43;2.30;;;1.23;;
9892;SDS011;4985;49.092;8.542;2022-07-09T09:06:11;2.05;;;1.12;;
9892;SDS011;4985;49.092;8.542;2022-07-09T09:08:39;3.15;;;1.40;;
9892;SDS011;4985;49.092;8.542;2022-07-09T09:11:07;6.15;;;1.62;;
9892;SDS011;4985;49.092;8.542;2022-07-09T09:13:36;3.45;;;1.37;;
9892;SDS011;4985;49.092;8.542;2022-07-09T09:16:06;2.53;;;1.23;;
9892;SDS011;4985;49.092;8.542;2022-07-09T09:18:35;2.05;;;1.12;;
9892;SDS011;4985;49.092;8.542;2022-07-09T09:21:04;1.10;;;1.00;;
9892;SDS011;4985;49.092;8.542;2022-07-09T09:23:42;2.62;;;1.50;;
9892;SDS011;4985;49.092;8.542;2022-07-09T09:26:10;3.75;;;1.42;;
9892;SDS011;4985;49.092;8.542;2022-07-09T09:28:48;1.98;;;1.25;;
9892;SDS011;4985;49.092;8.542;2022-07-09T09:31:19;1.52;;;1.30;;
9892;SDS011;4985;49.092;8.542;2022-07-09T09:33:46;2.03;;;1.20;;
9892;SDS011;4985;49.092;8.542;2022-07-09T09:36:27;1.35;;;1.08;;
9892;SDS011;4985;49.092;8.542;2022-07-09T09:38:58;1.98;;;1.12;;
9892;SDS011;4985;49.092;8.542;2022-07-09T09:41:33;1.67;;;1.15;;
9892;SDS011;4985;49.092;8.542;2022-07-09T09:44:00;3.72;;;1.80;;
9892;SDS011;4985;49.092;8.542;2022-07-09T09:46:33;1.12;;;0.93;;
9892;SDS011;4985;49.092;8.542;2022-07-09T09:49:01;1.08;;;1.00;;
9892;SDS011;4985;49.092;8.542;2022-07-09T09:51:32;1.40;;;1.23;;
9892;SDS011;4985;49.092;8.542;2022-07-09T09:54:01;3.58;;;1.30;;
9892;SDS011;4985;49.092;8.542;2022-07-09T09:56:29;2.42;;;1.17;;
9892;SDS011;4985;49.092;8.542;2022-07-09T09:58:56;1.25;;;1.15;;
9892;SDS011;4985;49.092;8.542;2022-07-09T10:01:24;2.42;;;1.20;;
9892;SDS011;4985;49.092;8.542;2022-07-09T10:03:51;5.15;;;1.62;;
9892;SDS011;4985;49.092;8.542;2022-07-09T10:06:19;3.22;;;1.77;;
9892;SDS011;4985;49.092;8.542;2022-07-09T10:08:47;3.42;;;1.12;;
9892;SDS011;4985;49.092;8.542;2022-07-09T10:11:14;2.47;;;1.65;;
9892;SDS011;4985;49.092;8.542;2022-07-09T10:13:49;3.95;;;1.40;;
9892;SDS011;4985;49.092;8.542;2022-07-09T10:16:31;3.60;;;1.70;;
9892;SDS011;4985;49.092;8.542;2022-07-09T10:18:58;1.33;;;1.23;;
9892;SDS011;4985;49.092;8.542;2022-07-09T10:21:32;2.87;;;1.40;;
9892;SDS011;4985;49.092;8.542;2022-07-09T10:24:01;2.40;;;1.10;;
9892;SDS011;4985;49.092;8.542;2022-07-09T10:26:43;4.00;;;1.30;;
9892;SDS011;4985;49.092;8.542;2022-07-09T10:29:22;1.83;;;1.37;;
9892;SDS011;4985;49.092;8.542;2022-07-09T10:31:50;2.22;;;1.25;;
9892;SDS011;4985;49.092;8.542;2022-07-09T10:34:23;2.47;;;1.17;;
9892;SDS011;4985;49.092;8.542;2022-07-09T10:37:08;1.52;;;1.20;;
9892;SDS011;4985;49.092;8.542;2022-07-09T10:39:36;2.30;;;1.30;;
9892;SDS011;4985;49.092;8.542;2022-07-09T10:42:03;1.12;;;0.93;;
9892;SDS011;4985;49.092;8.542;2022-07-09T10:44:34;1.92;;;1.10;;
9892;SDS011;4985;49.092;8.542;2022-07-09T10:47:03;2.58;;;0.95;;
9892;SDS011;4985;49.092;8.542;2022-07-09T10:49:30;2.60;;;1.25;;
9892;SDS011;4985;49.092;8.542;2022-07-09T10:51:59;2.03;;;1.15;;
9892;SDS011;4985;49.092;8.542;2022-07-09T10:54:26;2.17;;;1.30;;
9892;SDS011;4985;49.092;8.542;2022-07-09T10:56:54;1.10;;;1.00;;
9892;SDS011;4985;49.092;8.542;2022-07-09T10:59:21;1.60;;;1.25;;
9892;SDS011;4985;49.092;8.542;2022-07-09T11:01:48;4.60;;;1.40;;
9892;SDS011;4985;49.092;8.542;2022-07-09T11:04:23;1.33;;;1.20;;
9892;SDS011;4985;49.092;8.542;2022-07-09T11:06:51;3.33;;;1.30;;
9892;SDS011;4985;49.092;8.542;2022-07-09T11:09:17;2.15;;;1.17;;
9892;SDS011;4985;49.092;8.542;2022-07-09T11:11:45;2.15;;;1.12;;
9892;SDS011;4985;49.092;8.542;2022-07-09T11:14:14;1.85;;;1.30;;
9892;SDS011;4985;49.092;8.542;2022-07-09T11:16:41;1.58;;;1.20;;
9892;SDS011;4985;49.092;8.542;2022-07-09T11:19:14;1.62;;;1.20;;
9892;SDS011;4985;49.092;8.542;2022-07-09T11:21:40;2.15;;;1.20;;
9892;SDS011;4985;49.092;8.542;2022-07-09T11:24:13;2.97;;;1.12;;
9892;SDS011;4985;49.092;8.542;2022-07-09T11:26:41;1.73;;;1.02;;
9892;SDS011;4985;49.092;8.542;2022-07-09T11:29:08;1.58;;;1.10;;
9892;SDS011;4985;49.092;8.542;2022-07-09T11:31:36;0.93;;;0.90;;
9892;SDS011;4985;49.092;8.542;2022-07-09T11:34:11;1.73;;;1.20;;
9892;SDS011;4985;49.092;8.542;2022-07-09T11:36:39;2.25;;;1.27;;
9892;SDS011;4985;49.092;8.542;2022-07-09T11:39:07;3.37;;;1.37;;
9892;SDS011;4985;49.092;8.542;2022-07-09T11:41:40;1.48;;;1.27;;
9892;SDS011;4985;49.092;8.542;2022-07-09T11:44:08;1.35;;;1.15;;
9892;SDS011;4985;49.092;8.542;2022-07-09T11:46:38;1.33;;;1.02;;
9892;SDS011;4985;49.092;8.542;2022-07-09T11:49:13;1.35;;;1.12;;
9892;SDS011;4985;49.092;8.542;2022-07-09T11:51:40;3.28;;;1.25;;
9892;SDS011;4985;49.092;8.542;2022-07-09T11:54:08;3.20;;;1.20;;
9892;SDS011;4985;49.092;8.542;2022-07-09T11:56:41;1.77;;;1.00;;
9892;SDS011;4985;49.092;8.542;2022-07-09T11:59:10;3.53;;;1.10;;
9892;SDS011;4985;49.092;8.542;2022-07-09T12:01:38;1.87;;;1.27;;
9892;SDS011;4985;49.092;8.542;2022-07-09T12:04:05;1.65;;;1.17;;
9892;SDS011;4985;49.092;8.542;2022-07-09T12:06:32;2.03;;;1.30;;
9892;SDS011;4985;49.092;8.542;2022-07-09T12:08:59;4.25;;;1.20;;
9892;SDS011;4985;49.092;8.542;2022-07-09T12:11:27;1.87;;;1.20;;
9892;SDS011;4985;49.092;8.542;2022-07-09T12:13:54;2.50;;;1.45;;
9892;SDS011;4985;49.092;8.542;2022-07-09T12:16:20;1.50;;;1.17;;
9892;SDS011;4985;49.092;8.542;2022-07-09T12:18:48;2.55;;;1.30;;
9892;SDS011;4985;49.092;8.542;2022-07-09T12:21:15;2.50;;;1.30;;
9892;SDS011;4985;49.092;8.542;2022-07-09T12:23:41;1.52;;;1.33;;
9892;SDS011;4985;49.092;8.542;2022-07-09T12:26:08;1.98;;;1.12;;
9892;SDS011;4985;49.092;8.542;2022-07-09T12:28:35;2.10;;;1.48;;
9892;SDS011;4985;49.092;8.542;2022-07-09T12:31:01;2.50;;;1.20;;
9892;SDS011;4985;49.092;8.542;2022-07-09T12:33:28;2.12;;;1.52;;
9892;SDS011;4985;49.092;8.542;2022-07-09T12:35:56;3.03;;;1.50;;
9892;SDS011;4985;49.092;8.542;2022-07-09T12:38:23;2.40;;;1.55;;
9892;SDS011;4985;49.092;8.542;2022-07-09T12:40:49;3.22;;;1.50;;
9892;SDS011;4985;49.092;8.542;2022-07-09T12:43:16;2.30;;;1.62;;
9892;SDS011;4985;49.092;8.542;2022-07-09T12:45:43;2.95;;;1.40;;
9892;SDS011;4985;49.092;8.542;2022-07-09T12:48:09;1.67;;;1.52;;
9892;SDS011;4985;49.092;8.542;2022-07-09T12:50:36;4.70;;;1.67;;
9892;SDS011;4985;49.092;8.542;2022-07-09T12:53:04;3.78;;;1.40;;
9892;SDS011;4985;49.092;8.542;2022-07-09T12:55:31;1.83;;;1.40;;
9892;SDS011;4985;49.092;8.542;2022-07-09T12:57:57;3.20;;;1.67;;
9892;SDS011;4985;49.092;8.542;2022-07-09T13:00:24;2.12;;;1.50;;
9892;SDS011;4985;49.092;8.542;2022-07-09T13:02:51;3.47;;;1.80;;
9892;SDS011;4985;49.092;8.542;2022-07-09T13:05:19;3.12;;;1.60;;
9892;SDS011;4985;49.092;8.542;2022-07-09T13:07:45;2.50;;;1.70;;
9892;SDS011;4985;49.092;8.542;2022-07-09T13:10:13;4.15;;;1.80;;
9892;SDS011;4985;49.092;8.542;2022-07-09T13:12:40;3.33;;;1.40;;
9892;SDS011;4985;49.092;8.542;2022-07-09T13:15:07;3.30;;;1.77;;
9892;SDS011;4985;49.092;8.542;2022-07-09T13:17:34;3.05;;;1.62;;
9892;SDS011;4985;49.092;8.542;2022-07-09T13:20:01;2.85;;;1.40;;
9892;SDS011;4985;49.092;8.542;2022-07-09T13:22:28;3.00;;;1.75;;
9892;SDS011;4985;49.092;8.542;2022-07-09T13:24:55;2.30;;;1.60;;
9892;SDS011;4985;49.092;8.542;2022-07-09T13:27:22;1.87;;;1.45;;
9892;SDS011;4985;49.092;8.542;2022-07-09T13:29:49;2.58;;;1.77;;
9892;SDS011;4985;49.092;8.542;2022-07-09T13:32:17;1.70;;;1.40;;
9892;SDS011;4985;49.092;8.542;2022-07-09T13:34:43;3.37;;;1.52;;
9892;SDS011;4985;49.092;8.542;2022-07-09T13:37:10;3.97;;;2.00;;
9892;SDS011;4985;49.092;8.542;2022-07-09T13:39:37;1.80;;;1.70;;
9892;SDS011;4985;49.092;8.542;2022-07-09T13:42:04;4.07;;;1.67;;
9892;SDS011;4985;49.092;8.542;2022-07-09T13:44:32;3.05;;;1.40;;
9892;SDS011;4985;49.092;8.542;2022-07-09T13:46:59;2.75;;;1.55;;
9892;SDS011;4985;49.092;8.542;2022-07-09T13:49:26;2.83;;;1.50;;
9892;SDS011;4985;49.092;8.542;2022-07-09T13:51:52;2.42;;;1.70;;
9892;SDS011;4985;49.092;8.542;2022-07-09T13:54:20;2.75;;;1.52;;
9892;SDS011;4985;49.092;8.542;2022-07-09T13:56:47;2.03;;;1.70;;
9892;SDS011;4985;49.092;8.542;2022-07-09T13:59:13;3.28;;;1.65;;
9892;SDS011;4985;49.092;8.542;2022-07-09T14:01:41;3.80;;;1.60;;
9892;SDS011;4985;49.092;8.542;2022-07-09T14:04:08;3.75;;;1.52;;
9892;SDS011;4985;49.092;8.542;2022-07-09T14:06:34;1.75;;;1.55;;
9892;SDS011;4985;49.092;8.542;2022-07-09T14:09:02;1.90;;;1.40;;
9892;SDS011;4985;49.092;8.542;2022-07-09T14:11:29;2.17;;;1.42;;
9892;SDS011;4985;49.092;8.542;2022-07-09T14:13:56;1.92;;;1.70;;
9892;SDS011;4985;49.092;8.542;2022-07-09T14:16:22;1.52;;;1.40;;
9892;SDS011;4985;49.092;8.542;2022-07-09T14:18:51;3.75;;;1.30;;
9892;SDS011;4985;49.092;8.542;2022-07-09T14:21:19;2.58;;;1.70;;
9892;SDS011;4985;49.092;8.542;2022-07-09T14:23:46;5.03;;;1.75;;
9892;SDS011;4985;49.092;8.542;2022-07-09T14:26:13;1.45;;;1.20;;
9892;SDS011;4985;49.092;8.542;2022-07-09T14:28:40;1.40;;;1.30;;
9892;SDS011;4985;49.092;8.542;2022-07-09T14:31:07;4.03;;;2.10;;
9892;SDS011;4985;49.092;8.542;2022-07-09T14:33:33;2.65;;;1.55;;
9892;SDS011;4985;49.092;8.542;2022-07-09T14:36:01;3.03;;;1.37;;
9892;SDS011;4985;49.092;8.542;2022-07-09T14:38:28;4.65;;;1.95;;
9892;SDS011;4985;49.092;8.542;2022-07-09T14:40:55;3.67;;;1.80;;
9892;SDS011;4985;49.092;8.542;2022-07-09T14:43:21;2.15;;;1.52;;
9892;SDS011;4985;49.092;8.542;2022-07-09T14:45:48;2.53;;;1.87;;
9892;SDS011;4985;49.092;8.542;2022-07-09T14:48:15;3.03;;;1.90;;
9892;SDS011;4985;49.092;8.542;2022-07-09T14:50:41;4.78;;;1.80;;
9892;SDS011;4985;49.092;8.542;2022-07-09T14:53:09;4.87;;;1.98;;
9892;SDS011;4985;49.092;8.542;2022-07-09T14:55:36;1.98;;;1.50;;
9892;SDS011;4985;49.092;8.542;2022-07-09T14:58:02;2.08;;;1.77;;
9892;SDS011;4985;49.092;8.542;2022-07-09T15:00:29;4.43;;;1.30;;
9892;SDS011;4985;49.092;8.542;2022-07-09T15:02:56;3.08;;;1.50;;
9892;SDS011;4985;49.092;8.542;2022-07-09T15:05:22;2.40;;;1.70;;
9892;SDS011;4985;49.092;8.542;2022-07-09T15:07:50;4.60;;;1.67;;
9892;SDS011;4985;49.092;8.542;2022-07-09T15:10:18;2.75;;;1.67;;
9892;SDS011;4985;49.092;8.542;2022-07-09T15:12:45;2.15;;;1.50;;
9892;SDS011;4985;49.092;8.542;2022-07-09T15:15:12;1.60;;;1.48;;
9892;SDS011;4985;49.092;8.542;2022-07-09T15:17:38;3.20;;;1.52;;